EDSB/FKB METAR and TAF weather

Enter ICAO airport designator
Station Type Date Time Source
EDSB METAR 2020/07/11 03:50 UTC NOAA

EDSB 110350Z 05006KT 9999 VCSH FEW047 15/13 Q1020


Station Type Date Time Source
EDSB Decoded METAR 2020/07/11 03:50 UTC NOAA

Karlsruhe, Baden Wurttemberg, Germany (EDSB) 48-46-43N 008-04-47E
Jul 10, 2020 - 11:50 PM EDT / 2020.07.11 0350 UTC
Wind: from the NE (050 degrees) at 7 MPH (6 KT):0
Visibility: greater than 7 mile(s):0
Sky conditions: mostly clear
Weather: showers in the vicinity
Temperature: 59 F (15 C)
Dew Point: 55 F (13 C)
Relative Humidity: 87%
Pressure (altimeter): 30.12 in. Hg (1020 hPa)
ob: EDSB 110350Z 05006KT 9999 VCSH FEW047 15/13 Q1020
cycle: 4

Station Type Date Time Source
EDSB TAF 2020/07/11 04:29 UTC NOAA

TAF EDSB 110300Z 1104/1124 02008KT 9999 BKN030

Example: see airport list